Time;durP1;ratioP1;P1;durP2;ratioP2;P2;SDS_P1;SDS_P2;PMS_P1;PMS_P2;Temp;Humidity;BMP_temperature;BMP_pressure;BME280_temperature;BME280_humidity;BME280_pressure;Samples;Min_cycle;Max_cycle;Signal;HPM_P1;HPM_P2
2022/12/27 00:00:09;;;;;;;4.37;0.80;;;;;;;6.09;81.21;101189.03;5080747;28;21069;-66
2022/12/27 00:02:37;;;;;;;4.30;0.70;;;;;;;6.05;80.21;101196.78;5082613;28;20457;-66
2022/12/27 00:05:04;;;;;;;17.10;1.57;;;;;;;5.94;81.48;101192.41;5077450;28;20452;-65
2022/12/27 00:07:32;;;;;;;4.47;0.80;;;;;;;5.91;80.49;101198.25;5081438;28;20461;-66
2022/12/27 00:09:59;;;;;;;5.77;0.77;;;;;;;5.87;81.91;101201.72;5080400;28;20469;-66
2022/12/27 00:12:25;;;;;;;4.50;0.70;;;;;;;5.76;82.11;101203.50;5083572;28;20435;-66
2022/12/27 00:14:52;;;;;;;5.93;1.00;;;;;;;5.70;82.47;101209.88;5080084;28;20556;-66
2022/12/27 00:17:18;;;;;;;8.70;1.00;;;;;;;5.62;84.28;101221.06;5080923;28;20568;-66
2022/12/27 00:19:45;;;;;;;7.80;0.90;;;;;;;5.64;83.18;101214.38;5085335;28;20549;-66
2022/12/27 00:22:12;;;;;;;11.50;1.27;;;;;;;5.59;83.51;101222.41;5093617;28;20479;-67
2022/12/27 00:24:40;;;;;;;5.00;0.90;;;;;;;5.54;84.68;101225.03;5076907;28;20540;-66
2022/12/27 00:27:06;;;;;;;4.67;0.97;;;;;;;5.61;84.19;101220.25;5070231;28;20452;-66
2022/12/27 00:29:33;;;;;;;10.30;1.30;;;;;;;5.53;84.04;101226.06;5084019;28;20456;-67
2022/12/27 00:32:00;;;;;;;6.03;0.73;;;;;;;5.54;83.91;101219.66;5090806;28;20432;-66
2022/12/27 00:34:26;;;;;;;7.03;1.20;;;;;;;5.46;86.09;101222.78;5076175;28;20565;-66
2022/12/27 00:36:53;;;;;;;5.17;0.70;;;;;;;5.40;86.17;101229.97;5085026;28;20819;-66
2022/12/27 00:39:19;;;;;;;8.47;1.17;;;;;;;5.35;86.66;101227.19;5086971;28;20456;-66
2022/12/27 00:41:47;;;;;;;4.10;0.53;;;;;;;5.38;86.43;101228.59;5090902;28;20837;-66
2022/12/27 00:44:14;;;;;;;6.73;0.80;;;;;;;5.31;85.47;101234.97;5068964;28;20465;-66
2022/12/27 00:46:41;;;;;;;8.80;0.67;;;;;;;5.28;85.71;101227.41;5071554;28;20445;-66
2022/12/27 00:49:07;;;;;;;5.60;1.27;;;;;;;5.27;85.71;101228.47;5078456;28;20462;-66
2022/12/27 00:51:34;;;;;;;6.57;0.97;;;;;;;5.21;86.07;101229.44;5089407;28;20464;-67
2022/12/27 00:54:01;;;;;;;11.63;1.07;;;;;;;5.18;87.95;101238.03;5085346;28;20547;-67
2022/12/27 00:56:29;;;;;;;5.80;0.57;;;;;;;5.11;87.59;101237.38;5079779;28;20540;-67
2022/12/27 00:58:59;;;;;;;6.00;0.60;;;;;;;5.13;87.13;101246.00;5071623;28;20515;-67
2022/12/27 01:01:29;;;;;;;4.93;0.90;;;;;;;5.01;87.50;101242.63;5085571;28;20488;-66
2022/12/27 01:03:56;;;;;;;4.93;0.93;;;;;;;5.00;88.34;101251.72;5092997;28;20480;-67
2022/12/27 01:06:27;;;;;;;6.03;1.10;;;;;;;5.05;87.20;101247.25;5087332;28;20576;-67
2022/12/27 01:08:54;;;;;;;4.97;1.00;;;;;;;4.95;88.29;101260.50;5075121;28;20882;-67
2022/12/27 01:11:22;;;;;;;4.40;0.83;;;;;;;4.91;89.38;101258.56;5094974;28;20470;-67
2022/12/27 01:13:48;;;;;;;8.83;0.80;;;;;;;4.86;88.69;101262.00;5074423;28;20461;-68
2022/12/27 01:16:19;;;;;;;4.00;0.60;;;;;;;4.85;89.58;101273.78;5075815;28;20481;-67
2022/12/27 01:18:46;;;;;;;5.43;1.30;;;;;;;4.83;89.65;101273.25;5074611;28;20476;-67
2022/12/27 01:21:15;;;;;;;4.20;0.73;;;;;;;4.76;89.49;101284.13;5094771;28;20514;-68
2022/12/27 01:23:42;;;;;;;4.30;0.73;;;;;;;4.74;89.34;101280.06;5090229;28;20838;-67
2022/12/27 01:26:12;;;;;;;8.80;0.97;;;;;;;4.65;90.63;101286.88;5075684;28;20453;-68
2022/12/27 01:28:38;;;;;;;4.87;0.70;;;;;;;4.65;91.38;101293.09;5074452;28;20904;-68
2022/12/27 01:31:05;;;;;;;6.63;0.93;;;;;;;4.65;90.73;101282.34;5083662;28;20479;-67
2022/12/27 01:33:34;;;;;;;4.40;0.60;;;;;;;4.68;91.39;101297.94;5094948;28;20488;-68
2022/12/27 01:36:08;;;;;;;5.57;0.77;;;;;;;4.67;91.25;101290.97;5074184;28;20464;-67
2022/12/27 01:38:34;;;;;;;8.93;1.43;;;;;;;4.62;90.58;101285.50;5074799;28;20503;-67
2022/12/27 01:42:50;;;;;;;5.27;0.50;;;;;;;4.58;91.10;101291.63;5078819;28;21048;-67
2022/12/27 01:43:47;;;;;;;8.50;1.40;;;;;;;4.50;91.96;101290.13;5092271;28;20440;-67
2022/12/27 01:46:14;;;;;;;12.10;1.03;;;;;;;4.49;92.17;101292.00;5073149;28;20469;-68
2022/12/27 01:48:42;;;;;;;6.83;1.30;;;;;;;4.44;92.64;101291.94;5075328;28;20195;-67
2022/12/27 01:51:09;;;;;;;11.17;1.03;;;;;;;4.41;93.33;101294.28;5074685;28;20481;-67
2022/12/27 01:53:39;;;;;;;4.27;0.60;;;;;;;4.34;92.95;101301.66;5078386;28;20464;-68
2022/12/27 01:56:09;;;;;;;5.67;0.93;;;;;;;4.29;92.72;101297.84;5081549;28;20488;-67
2022/12/27 01:58:42;;;;;;;5.13;0.60;;;;;;;4.28;93.30;101308.81;5090510;28;20560;-67
2022/12/27 02:01:12;;;;;;;6.67;1.10;;;;;;;4.29;94.43;101305.06;5055487;28;20474;-68
2022/12/27 02:03:43;;;;;;;4.60;0.87;;;;;;;4.24;94.09;101313.00;5090050;28;20449;-68
2022/12/27 02:06:13;;;;;;;4.10;0.70;;;;;;;4.20;94.31;101298.47;5079747;28;20503;-67
2022/12/27 02:08:43;;;;;;;7.30;1.23;;;;;;;4.14;94.41;101305.59;5093534;28;20458;-68
2022/12/27 02:11:12;;;;;;;4.43;0.77;;;;;;;4.14;94.13;101304.78;5078694;28;20480;-67
2022/12/27 02:13:43;;;;;;;4.10;0.77;;;;;;;4.10;95.84;101301.78;5089576;28;20552;-67
2022/12/27 02:16:12;;;;;;;7.13;1.30;;;;;;;4.12;95.97;101315.78;5073363;28;20463;-68
2022/12/27 02:18:38;;;;;;;4.73;0.73;;;;;;;4.10;95.74;101317.84;5074282;28;20488;-66
2022/12/27 02:21:37;;;;;;;6.03;1.03;;;;;;;4.11;95.36;101319.47;5074294;28;21037;-67
2022/12/27 02:24:25;;;;;;;4.83;0.80;;;;;;;4.14;95.18;101327.06;5073475;28;20452;-67
2022/12/27 02:26:56;;;;;;;7.53;0.70;;;;;;;4.06;95.67;101327.44;5075312;28;20539;-66
2022/12/27 02:29:47;;;;;;;15.43;2.10;;;;;;;4.00;96.27;101325.72;5087220;28;20453;-67
2022/12/27 02:32:18;;;;;;;5.87;0.90;;;;;;;3.99;95.93;101324.09;5079936;28;20465;-67
2022/12/27 02:34:53;;;;;;;8.23;0.87;;;;;;;4.01;96.11;101332.69;5078144;28;20485;-67
2022/12/27 02:37:23;;;;;;;8.77;1.00;;;;;;;3.99;96.13;101330.28;5080001;28;20463;-66
2022/12/27 02:39:51;;;;;;;5.93;1.33;;;;;;;3.90;96.71;101337.06;5074041;28;21014;-67
2022/12/27 02:53:49;;;;;;;8.40;1.40;;;;;;;3.92;96.55;101345.66;5072600;28;20487;-66
2022/12/27 02:59:27;;;;;;;7.80;1.10;;;;;;;3.89;97.27;101346.13;5073862;28;20476;-67
2022/12/27 03:05:11;;;;;;;4.97;0.93;;;;;;;3.85;97.03;101361.09;5084448;28;20479;-66
2022/12/27 03:07:48;;;;;;;5.97;1.07;;;;;;;3.80;96.21;101360.94;5074194;28;20449;-67
2022/12/27 03:16:16;;;;;;;6.57;0.90;;;;;;;3.78;96.98;101379.94;5064825;28;20488;-67
2022/12/27 03:25:26;;;;;;;4.50;1.00;;;;;;;3.80;96.74;101377.84;5075781;28;20539;-67
2022/12/27 03:27:43;;;;;;;5.90;1.33;;;;;;;3.76;97.48;101365.16;5043910;28;20462;-67
2022/12/27 03:33:13;;;;;;;5.43;1.30;;;;;;;3.74;97.55;101376.13;5075712;28;20452;-67
2022/12/27 03:38:01;;;;;;;8.37;0.90;;;;;;;3.73;97.87;101374.50;5079213;28;20833;-67
2022/12/27 03:38:35;;;;;;;7.30;1.37;;;;;;;3.80;97.30;101372.47;5072579;28;20481;-67
2022/12/27 03:43:50;;;;;;;5.90;1.10;;;;;;;3.84;97.03;101382.72;5072477;28;20448;-67
2022/12/27 03:46:37;;;;;;;4.23;0.90;;;;;;;3.90;96.63;101385.28;5073008;28;20441;-67
2022/12/27 03:49:31;;;;;;;5.90;1.23;;;;;;;3.88;97.03;101386.56;5073614;28;20485;-67
2022/12/27 03:52:06;;;;;;;11.83;1.43;;;;;;;3.91;96.98;101394.16;5044163;28;20490;-67
2022/12/27 03:54:36;;;;;;;4.73;0.90;;;;;;;3.95;96.34;101393.44;5029361;28;20884;-67
2022/12/27 03:57:06;;;;;;;9.53;1.60;;;;;;;3.95;96.93;101379.22;5011477;28;20527;-68
2022/12/27 03:59:33;;;;;;;6.60;1.03;;;;;;;3.96;96.83;101386.22;5028543;28;20492;-67
2022/12/27 04:02:00;;;;;;;4.90;1.00;;;;;;;4.01;95.93;101394.34;5033000;28;20546;-67
2022/12/27 04:04:27;;;;;;;8.00;0.90;;;;;;;4.00;95.93;101390.03;5046098;28;20462;-68
2022/12/27 04:06:54;;;;;;;4.30;1.00;;;;;;;4.04;95.70;101391.19;5043250;28;20983;-68
2022/12/27 04:36:45;;;;;;;10.37;1.73;;;;;;;4.00;95.04;101390.03;5072574;28;20444;-67
2022/12/27 04:39:12;;;;;;;6.13;1.67;;;;;;;4.05;94.65;101390.16;5073709;28;21057;-67
2022/12/27 04:55:27;;;;;;;7.40;1.53;;;;;;;4.12;93.98;101406.06;5095087;28;20474;-67
2022/12/27 04:57:57;;;;;;;5.73;1.40;;;;;;;4.17;94.35;101398.97;5083348;28;20492;-67
2022/12/27 05:03:13;;;;;;;5.60;1.70;;;;;;;4.13;93.64;101397.81;5074636;28;20448;-67
2022/12/27 05:05:41;;;;;;;5.60;1.47;;;;;;;4.14;93.61;101395.94;5082144;28;20489;-67
2022/12/27 05:16:22;;;;;;;5.00;1.30;;;;;;;4.16;92.85;101394.66;5094811;28;20459;-67
2022/12/27 05:18:49;;;;;;;8.90;1.53;;;;;;;4.16;93.47;101392.00;5077125;28;20476;-67
2022/12/27 05:21:15;;;;;;;9.30;1.63;;;;;;;4.18;93.41;101403.28;5075373;28;20493;-66
2022/12/27 05:26:27;;;;;;;5.07;1.27;;;;;;;4.26;92.37;101402.91;5075343;28;21008;-67
2022/12/27 05:28:58;;;;;;;5.80;1.90;;;;;;;4.28;91.96;101411.50;5074838;28;20457;-67
2022/12/27 05:31:26;;;;;;;5.60;1.10;;;;;;;4.30;92.62;101411.28;5093181;28;20804;-67
2022/12/27 05:33:53;;;;;;;6.00;1.20;;;;;;;4.39;92.07;101417.91;5078662;28;20823;-67
2022/12/27 05:36:20;;;;;;;6.00;1.50;;;;;;;4.34;91.64;101415.13;5096341;28;20451;-66
2022/12/27 05:38:47;;;;;;;6.63;1.30;;;;;;;4.41;90.98;101414.97;5082632;28;20570;-67
2022/12/27 05:41:14;;;;;;;7.47;1.37;;;;;;;4.34;92.41;101419.66;5091150;28;20498;-67
2022/12/27 05:43:41;;;;;;;6.23;1.57;;;;;;;4.40;90.96;101418.72;5077365;28;20852;-66
2022/12/27 05:46:10;;;;;;;5.47;1.40;;;;;;;4.38;91.04;101424.28;5087681;28;20483;-67
2022/12/27 05:48:37;;;;;;;4.20;0.87;;;;;;;4.27;91.66;101428.66;5077461;28;20536;-67
2022/12/27 05:51:05;;;;;;;5.03;1.13;;;;;;;4.24;92.04;101437.16;5076533;28;20481;-67
2022/12/27 05:53:32;;;;;;;4.87;1.00;;;;;;;4.25;91.07;101438.81;5078499;28;20962;-66
2022/12/27 05:55:59;;;;;;;6.70;1.83;;;;;;;4.30;91.57;101441.59;5076109;28;20445;-66
2022/12/27 05:58:26;;;;;;;5.97;1.07;;;;;;;4.27;90.80;101436.69;5074572;28;20534;-67
2022/12/27 06:00:53;;;;;;;4.20;0.83;;;;;;;4.26;91.24;101439.63;5074303;28;20476;-67
2022/12/27 06:03:21;;;;;;;19.43;1.60;;;;;;;4.25;91.36;101433.47;5093697;28;20448;-67
2022/12/27 06:05:48;;;;;;;4.60;0.83;;;;;;;4.28;91.36;101442.88;5086959;28;20461;-67
2022/12/27 06:08:14;;;;;;;4.73;1.00;;;;;;;4.27;91.10;101444.75;5073160;28;20877;-67
2022/12/27 06:10:41;;;;;;;4.80;1.00;;;;;;;4.26;90.99;101440.44;5088918;28;20482;-66
2022/12/27 06:13:07;;;;;;;12.47;1.73;;;;;;;4.23;91.26;101446.28;5079704;28;20458;-67
2022/12/27 06:15:34;;;;;;;7.03;1.00;;;;;;;4.17;91.36;101439.19;5074109;28;21069;-67
2022/12/27 06:18:02;;;;;;;8.00;1.03;;;;;;;4.19;91.05;101439.75;5087981;28;20547;-67
2022/12/27 06:20:30;;;;;;;11.60;1.53;;;;;;;4.15;92.03;101454.69;5076729;28;20551;-67
2022/12/27 06:22:58;;;;;;;6.30;1.20;;;;;;;4.15;91.77;101445.81;5082047;28;21024;-67
2022/12/27 06:25:25;;;;;;;4.40;0.80;;;;;;;4.10;92.67;101445.72;5089211;28;21598;-67
2022/12/27 06:27:52;;;;;;;9.53;1.30;;;;;;;4.09;92.67;101461.00;5086673;28;20985;-67
2022/12/27 06:30:18;;;;;;;8.63;1.33;;;;;;;4.15;92.08;101470.75;5092278;28;20463;-66
2022/12/27 06:32:45;;;;;;;4.47;1.10;;;;;;;4.20;92.61;101462.81;5075050;28;20465;-67
2022/12/27 06:35:11;;;;;;;5.43;1.03;;;;;;;4.24;91.90;101463.16;5074350;28;20445;-67
2022/12/27 06:37:39;;;;;;;10.70;1.17;;;;;;;4.26;92.26;101467.25;5083106;28;20462;-67
2022/12/27 06:40:07;;;;;;;4.30;0.90;;;;;;;4.33;91.62;101466.31;5093632;28;20496;-67
2022/12/27 06:42:34;;;;;;;5.70;1.00;;;;;;;4.37;91.85;101459.41;5074557;28;20464;-67
2022/12/27 06:45:00;;;;;;;4.00;0.70;;;;;;;4.40;92.14;101467.81;5074592;28;20473;-67
2022/12/27 06:47:27;;;;;;;6.40;1.17;;;;;;;4.37;90.95;101468.25;5081547;28;20555;-67
2022/12/27 06:49:54;;;;;;;7.40;1.07;;;;;;;4.38;91.87;101479.81;5090015;28;20485;-67
2022/12/27 06:52:22;;;;;;;4.13;0.83;;;;;;;4.44;91.19;101478.88;5073177;28;20465;-67
2022/12/27 06:54:50;;;;;;;5.70;1.03;;;;;;;4.41;91.37;101468.63;5075217;28;20461;-67
2022/12/27 06:57:16;;;;;;;12.90;1.13;;;;;;;4.49;90.50;101476.28;5074325;28;20492;-67
2022/12/27 06:59:43;;;;;;;7.20;0.90;;;;;;;4.47;90.64;101479.22;5094695;28;20555;-67
2022/12/27 07:02:10;;;;;;;4.80;0.70;;;;;;;4.50;90.78;101489.44;5075237;28;20454;-67
2022/12/27 07:04:37;;;;;;;7.30;1.20;;;;;;;4.56;90.96;101482.34;5091779;28;20467;-68
2022/12/27 07:07:04;;;;;;;5.67;1.30;;;;;;;4.59;90.81;101489.09;5074757;28;20465;-67
2022/12/27 07:09:30;;;;;;;6.00;1.20;;;;;;;4.63;90.63;101488.38;5085981;28;20491;-67
2022/12/27 07:11:58;;;;;;;10.23;1.87;;;;;;;4.66;89.81;101485.22;5077238;28;20457;-67
2022/12/27 07:14:25;;;;;;;7.43;1.40;;;;;;;4.71;90.00;101496.03;5083835;28;20456;-67
2022/12/27 07:16:51;;;;;;;4.73;1.00;;;;;;;4.72;89.90;101503.03;5078250;28;20457;-66
2022/12/27 07:19:18;;;;;;;7.80;1.27;;;;;;;4.74;89.81;101503.63;5078168;28;20484;-67
2022/12/27 07:21:45;;;;;;;4.30;0.90;;;;;;;4.84;88.65;101505.69;5076531;28;20499;-67
2022/12/27 07:24:11;;;;;;;6.80;0.90;;;;;;;4.86;88.84;101510.78;5084081;28;20467;-67
2022/12/27 07:26:38;;;;;;;9.43;1.37;;;;;;;4.87;88.20;101517.78;5079940;28;20568;-67
2022/12/27 07:29:06;;;;;;;6.50;1.10;;;;;;;4.79;88.68;101513.63;5078791;28;20459;-67
2022/12/27 07:31:33;;;;;;;6.13;1.70;;;;;;;4.77;89.41;101526.47;5080565;28;20479;-67
2022/12/27 07:34:01;;;;;;;7.10;0.90;;;;;;;4.83;88.67;101522.03;5083665;28;20541;-68
2022/12/27 07:36:31;;;;;;;9.90;1.73;;;;;;;4.91;88.77;101533.16;5078948;28;20461;-67
2022/12/27 07:38:57;;;;;;;9.07;1.77;;;;;;;4.91;88.42;101537.72;5073557;28;20481;-68
2022/12/27 07:41:24;;;;;;;7.53;1.30;;;;;;;4.95;88.16;101536.19;5093766;28;20514;-67
2022/12/27 07:43:51;;;;;;;5.03;0.73;;;;;;;4.94;89.26;101543.44;5078207;28;20449;-67
2022/12/27 07:46:21;;;;;;;7.93;1.17;;;;;;;4.93;88.42;101535.63;5091803;28;20456;-67
2022/12/27 07:48:48;;;;;;;4.83;0.90;;;;;;;4.92;87.90;101539.38;5076881;28;20453;-67
2022/12/27 07:51:15;;;;;;;5.00;1.13;;;;;;;4.93;88.31;101552.56;5089124;28;20571;-67
2022/12/27 07:53:42;;;;;;;4.80;0.87;;;;;;;4.92;87.77;101547.44;5086248;28;20544;-67
2022/12/27 07:56:11;;;;;;;4.37;0.90;;;;;;;4.96;87.60;101552.09;5071925;28;20461;-67
2022/12/27 07:58:39;;;;;;;4.57;1.00;;;;;;;5.00;87.56;101552.41;5073409;28;20544;-67
2022/12/27 08:01:06;;;;;;;4.83;1.03;;;;;;;4.99;87.14;101558.84;5073849;28;20858;-67
2022/12/27 08:03:34;;;;;;;4.80;1.17;;;;;;;4.99;88.39;101554.28;5084918;28;20458;-67
2022/12/27 08:06:01;;;;;;;6.07;1.33;;;;;;;4.99;88.62;101562.31;5076502;28;20564;-67
2022/12/27 08:08:38;;;;;;;5.87;0.97;;;;;;;4.88;90.44;101557.03;5072823;28;20461;-67
2022/12/27 08:11:05;;;;;;;5.27;1.30;;;;;;;4.71;92.09;101556.94;5083282;28;20476;-67
2022/12/27 08:13:32;;;;;;;7.83;1.00;;;;;;;4.71;92.58;101548.91;5073293;28;20493;-69
2022/12/27 08:15:59;;;;;;;5.10;1.30;;;;;;;4.68;92.87;101563.59;5072842;28;20536;-67
2022/12/27 08:18:26;;;;;;;6.10;1.43;;;;;;;4.67;93.17;101563.84;5074142;28;20466;-67
2022/12/27 08:20:54;;;;;;;6.73;1.13;;;;;;;4.73;92.83;101558.31;5070059;28;20493;-69
2022/12/27 08:23:20;;;;;;;5.00;1.10;;;;;;;4.76;92.43;101557.03;5061869;28;20828;-68
2022/12/27 08:25:47;;;;;;;4.80;1.10;;;;;;;4.81;92.24;101568.69;5066543;28;20474;-68
2022/12/27 08:28:16;;;;;;;5.73;1.10;;;;;;;4.89;91.20;101578.25;5059313;28;20471;-67
2022/12/27 08:30:45;;;;;;;8.17;1.27;;;;;;;4.94;91.22;101574.84;5069633;28;20531;-67
2022/12/27 08:33:13;;;;;;;4.77;0.93;;;;;;;4.93;91.58;101573.22;5071642;28;20537;-67
2022/12/27 08:35:42;;;;;;;11.23;1.10;;;;;;;4.97;91.18;101569.81;5071340;28;20480;-67
2022/12/27 08:38:10;;;;;;;7.00;1.60;;;;;;;5.02;91.05;101579.84;5071676;28;20954;-67
2022/12/27 08:40:40;;;;;;;5.57;1.10;;;;;;;5.03;91.60;101594.88;5060808;28;20496;-68
2022/12/27 08:43:07;;;;;;;6.20;1.53;;;;;;;5.04;91.68;101583.91;5073129;28;20504;-67
2022/12/27 08:45:34;;;;;;;5.60;1.67;;;;;;;5.10;91.64;101584.84;5069598;28;20461;-70
2022/12/27 08:48:01;;;;;;;4.30;0.90;;;;;;;5.19;90.50;101593.31;5071548;28;20812;-68
2022/12/27 08:50:28;;;;;;;6.10;1.50;;;;;;;5.23;90.10;101584.53;5073140;28;20483;-68
2022/12/27 08:52:58;;;;;;;4.00;0.80;;;;;;;5.20;90.67;101585.00;5071854;28;20492;-68
2022/12/27 08:55:26;;;;;;;4.80;1.00;;;;;;;5.25;89.38;101582.41;5080322;28;20463;-68
2022/12/27 08:57:56;;;;;;;4.80;1.20;;;;;;;5.23;89.45;101578.34;5074045;28;20467;-68
2022/12/27 09:00:23;;;;;;;4.40;1.00;;;;;;;5.25;89.73;101593.16;5072687;28;20484;-68
2022/12/27 09:02:50;;;;;;;6.03;1.30;;;;;;;5.22;90.35;101588.28;5072062;28;20460;-68
2022/12/27 09:05:18;;;;;;;6.33;1.27;;;;;;;5.21;89.94;101588.50;5073659;28;20449;-67
2022/12/27 09:07:45;;;;;;;6.13;1.50;;;;;;;5.24;90.61;101590.72;5075010;28;20465;-68
2022/12/27 09:10:11;;;;;;;4.40;1.10;;;;;;;5.16;91.53;101591.91;5072089;28;20500;-68
2022/12/27 09:12:39;;;;;;;5.30;1.27;;;;;;;5.23;92.19;101594.47;5072302;28;21041;-68
2022/12/27 09:15:07;;;;;;;6.50;1.07;;;;;;;5.28;91.83;101602.63;5072690;28;20484;-68
2022/12/27 09:17:34;;;;;;;12.83;1.40;;;;;;;5.28;91.18;101602.63;5088714;28;20461;-67
2022/12/27 09:20:01;;;;;;;5.80;1.10;;;;;;;5.28;90.84;101602.63;5092782;28;20522;-68
2022/12/27 09:22:28;;;;;;;4.33;1.10;;;;;;;5.39;89.85;101595.56;5085523;28;20465;-68
2022/12/27 09:24:55;;;;;;;5.40;1.30;;;;;;;5.41;89.77;101601.50;5077857;28;20836;-68
2022/12/27 09:27:21;;;;;;;6.13;1.20;;;;;;;5.39;90.06;101600.94;5081501;28;20461;-68
2022/12/27 09:29:49;;;;;;;6.43;1.30;;;;;;;5.35;90.07;101599.78;5077182;28;20921;-68
2022/12/27 09:32:16;;;;;;;5.70;1.37;;;;;;;5.41;89.62;101623.00;5079343;28;20539;-68
2022/12/27 09:34:42;;;;;;;5.67;1.50;;;;;;;5.51;88.35;101607.88;5075180;28;20555;-68
2022/12/27 09:37:09;;;;;;;9.83;1.93;;;;;;;5.59;88.17;101608.53;5077288;28;20456;-67
2022/12/27 09:39:36;;;;;;;4.97;1.33;;;;;;;5.65;88.59;101608.38;5081654;28;20580;-68
2022/12/27 09:42:11;;;;;;;8.00;1.43;;;;;;;5.67;88.99;101616.22;5077023;28;20463;-68
2022/12/27 09:44:47;;;;;;;6.30;1.37;;;;;;;5.75;88.21;101616.59;5075063;28;20460;-68
2022/12/27 09:47:22;;;;;;;7.23;1.93;;;;;;;5.87;87.38;101616.53;5071212;28;20468;-68
2022/12/27 09:49:52;;;;;;;12.23;1.33;;;;;;;5.90;88.08;101626.00;5066504;28;20483;-68
2022/12/27 09:52:22;;;;;;;7.20;1.80;;;;;;;5.95;87.08;101613.47;5074226;28;20469;-68
2022/12/27 09:54:59;;;;;;;6.07;2.10;;;;;;;5.96;87.17;101633.13;5073364;28;20456;-69
2022/12/27 09:57:30;;;;;;;4.67;1.07;;;;;;;6.05;86.88;101616.31;5073355;28;20460;-68
2022/12/27 09:59:59;;;;;;;6.57;1.43;;;;;;;6.02;87.00;101619.53;5074901;28;20491;-68
2022/12/27 10:02:28;;;;;;;6.77;2.07;;;;;;;6.07;87.17;101622.28;5075199;28;20475;-68
2022/12/27 10:04:58;;;;;;;6.73;1.67;;;;;;;6.15;87.22;101629.09;5082478;28;20800;-68
2022/12/27 10:07:35;;;;;;;6.63;1.87;;;;;;;6.21;86.68;101625.47;5079627;28;20484;-68
2022/12/27 10:10:10;;;;;;;6.47;1.37;;;;;;;6.25;86.39;101628.47;5080322;28;20555;-68
2022/12/27 10:13:01;;;;;;;4.83;1.07;;;;;;;6.27;86.42;101613.69;5078445;28;20433;-68
2022/12/27 10:15:39;;;;;;;8.27;2.43;;;;;;;6.18;87.81;101625.94;5074919;28;20454;-68
2022/12/27 10:18:18;;;;;;;7.10;1.70;;;;;;;6.12;87.88;101623.44;5081660;28;20460;-68
2022/12/27 10:21:11;;;;;;;8.20;2.30;;;;;;;6.12;88.53;101620.75;5079127;28;20564;-68
2022/12/27 10:23:42;;;;;;;6.97;2.10;;;;;;;6.26;88.84;101630.09;5062476;28;20465;-68
2022/12/27 10:26:14;;;;;;;6.20;2.10;;;;;;;6.41;88.98;101619.53;5070225;28;20500;-68
2022/12/27 10:28:51;;;;;;;6.17;1.93;;;;;;;6.51;87.43;101627.78;5072353;28;20453;-68
2022/12/27 10:31:21;;;;;;;7.30;1.77;;;;;;;6.47;87.92;101631.22;5074448;28;20563;-68
2022/12/27 10:33:51;;;;;;;7.27;1.90;;;;;;;6.52;88.54;101644.75;5073283;28;20461;-68
2022/12/27 10:36:20;;;;;;;5.50;1.67;;;;;;;6.52;87.78;101633.97;5067537;28;20839;-68
2022/12/27 10:38:47;;;;;;;17.67;2.00;;;;;;;6.54;88.03;101635.34;5075075;28;20447;-68
2022/12/27 10:41:29;;;;;;;5.40;1.67;;;;;;;6.64;87.19;101642.78;5071847;28;21072;-67
2022/12/27 10:43:55;;;;;;;11.43;1.87;;;;;;;6.59;87.69;101650.75;5076802;28;20438;-68
2022/12/27 10:46:25;;;;;;;7.70;1.97;;;;;;;6.67;86.96;101654.91;5073551;28;20492;-68
2022/12/27 10:48:58;;;;;;;4.80;1.40;;;;;;;6.56;88.19;101645.88;5074529;28;20524;-68
2022/12/27 10:51:26;;;;;;;4.97;1.37;;;;;;;6.56;88.11;101649.38;5073135;28;20564;-68
2022/12/27 10:54:00;;;;;;;5.90;2.13;;;;;;;6.52;88.08;101658.19;5074026;28;20437;-68
2022/12/27 10:56:28;;;;;;;7.90;2.50;;;;;;;6.47;88.32;101652.75;5073651;28;20457;-68
2022/12/27 10:58:55;;;;;;;7.63;2.47;;;;;;;6.44;88.76;101653.22;5074651;28;20449;-68
2022/12/27 11:01:24;;;;;;;8.53;1.60;;;;;;;6.45;88.74;101654.84;5073013;28;20584;-68
2022/12/27 11:04:08;;;;;;;7.50;2.27;;;;;;;6.50;87.93;101669.19;5074641;28;20422;-68
2022/12/27 11:06:36;;;;;;;6.57;1.97;;;;;;;6.57;87.52;101661.78;5073483;28;20453;-68
2022/12/27 11:09:24;;;;;;;8.03;3.00;;;;;;;6.53;88.23;101665.22;5073911;28;20923;-68
2022/12/27 11:11:50;;;;;;;12.27;2.33;;;;;;;6.40;88.47;101671.75;5076856;28;20453;-68
2022/12/27 11:14:19;;;;;;;5.83;1.77;;;;;;;6.39;88.83;101682.75;5073570;28;20491;-69
2022/12/27 11:16:46;;;;;;;5.50;1.80;;;;;;;6.43;88.50;101681.22;5072030;28;20500;-69
2022/12/27 11:19:23;;;;;;;9.00;2.00;;;;;;;6.49;87.43;101678.34;5073882;28;20889;-69
2022/12/27 11:21:53;;;;;;;6.60;1.90;;;;;;;6.54;88.37;101677.59;5074281;28;20464;-69
2022/12/27 11:24:21;;;;;;;5.20;1.37;;;;;;;6.58;87.36;101681.44;5089011;28;20588;-69
2022/12/27 11:26:51;;;;;;;5.67;1.70;;;;;;;6.60;86.66;101673.94;5066292;28;20464;-69
2022/12/27 11:29:21;;;;;;;5.23;1.70;;;;;;;6.56;87.24;101678.19;5070667;28;20457;-68
2022/12/27 11:31:48;;;;;;;5.30;2.03;;;;;;;6.60;86.80;101678.47;5079573;28;20456;-68
2022/12/27 11:34:18;;;;;;;5.90;2.07;;;;;;;6.59;87.42;101685.75;5079032;28;20541;-68
2022/12/27 11:36:48;;;;;;;8.37;2.70;;;;;;;6.60;87.87;101692.78;5083758;28;20539;-69
2022/12/27 11:39:42;;;;;;;7.47;2.10;;;;;;;6.67;87.00;101685.31;5083065;28;20548;-69
2022/12/27 11:42:18;;;;;;;6.77;2.20;;;;;;;6.54;88.09;101693.75;5080132;28;20809;-68
2022/12/27 11:44:48;;;;;;;10.50;2.67;;;;;;;6.55;88.17;101703.44;5074857;28;20460;-67
2022/12/27 11:47:31;;;;;;;6.40;1.73;;;;;;;6.54;88.71;101697.25;5082455;28;20453;-66
2022/12/27 11:50:30;;;;;;;17.10;2.40;;;;;;;6.51;89.75;101696.94;5081331;28;20473;-66
2022/12/27 11:53:08;;;;;;;5.53;2.23;;;;;;;6.53;89.38;101694.81;5080326;28;20465;-65
2022/12/27 11:56:05;;;;;;;6.33;1.70;;;;;;;6.56;88.52;101691.63;5083140;28;20463;-67
2022/12/27 11:58:57;;;;;;;4.93;1.60;;;;;;;6.61;88.59;101702.47;5080753;28;20896;-66
2022/12/27 12:01:41;;;;;;;5.40;1.77;;;;;;;6.63;87.87;101696.84;5082385;28;20567;-67
2022/12/27 12:04:45;;;;;;;10.07;2.20;;;;;;;6.70;87.25;101695.59;5075965;28;20532;-67
2022/12/27 12:07:23;;;;;;;10.80;2.00;;;;;;;6.60;86.92;101695.47;5080353;28;20425;-66
2022/12/27 12:10:05;;;;;;;8.17;1.97;;;;;;;6.66;86.04;101699.03;5079974;28;20487;-66
2022/12/27 12:13:10;;;;;;;5.97;2.03;;;;;;;6.68;87.09;101700.41;5082259;28;20454;-67
2022/12/27 12:15:57;;;;;;;5.90;1.67;;;;;;;6.87;85.44;101700.16;5039526;28;20540;-65
2022/12/27 12:18:49;;;;;;;11.70;1.70;;;;;;;6.95;84.53;101705.94;5082707;28;20433;-69
2022/12/27 12:21:26;;;;;;;4.87;1.53;;;;;;;7.12;83.46;101708.53;5073269;28;20563;-66
2022/12/27 12:24:18;;;;;;;6.27;1.70;;;;;;;7.41;82.84;101705.69;5078934;28;20912;-66
2022/12/27 12:26:54;;;;;;;5.00;1.63;;;;;;;7.88;80.80;101703.22;5079649;28;20493;-66
2022/12/27 12:29:31;;;;;;;5.43;1.87;;;;;;;8.53;77.88;101714.84;5082460;28;20443;-66
2022/12/27 12:32:31;;;;;;;5.93;1.80;;;;;;;9.38;73.56;101712.88;5077632;28;20898;-64
2022/12/27 12:35:18;;;;;;;5.77;1.70;;;;;;;9.82;70.14;101717.84;5074706;28;20902;-66
2022/12/27 12:38:11;;;;;;;6.73;1.80;;;;;;;10.31;68.16;101715.53;5078734;28;20484;-67
2022/12/27 12:41:02;;;;;;;6.13;1.50;;;;;;;10.23;66.33;101721.44;5075823;28;20495;-66
2022/12/27 12:43:57;;;;;;;5.10;1.50;;;;;;;10.28;65.84;101720.66;5077253;28;20437;-67
2022/12/27 12:46:31;;;;;;;7.33;1.53;;;;;;;10.71;64.47;101719.25;5082603;28;20458;-66
2022/12/27 12:49:51;;;;;;;5.50;1.30;;;;;;;11.16;63.69;101717.53;5077947;28;20502;-65
2022/12/27 12:52:33;;;;;;;6.90;1.90;;;;;;;10.71;62.68;101724.66;5008925;28;20460;-66
2022/12/27 12:55:18;;;;;;;4.73;1.17;;;;;;;10.41;63.83;101720.13;5012635;28;20463;-68
2022/12/27 12:57:55;;;;;;;6.50;1.70;;;;;;;9.75;66.37;101734.38;5007021;28;20551;-66
2022/12/27 13:00:30;;;;;;;7.03;1.23;;;;;;;9.54;67.07;101744.31;5009689;28;20506;-67
2022/12/27 13:03:34;;;;;;;9.70;2.20;;;;;;;9.02;69.49;101747.84;5011610;28;20831;-67
2022/12/27 13:06:11;;;;;;;5.30;1.23;;;;;;;8.92;70.89;101753.19;5010872;28;20459;-67
2022/12/27 13:08:47;;;;;;;11.03;1.87;;;;;;;8.71;71.62;101737.91;5008819;28;20488;-67
2022/12/27 13:11:39;;;;;;;6.13;1.50;;;;;;;8.44;73.44;101743.41;5010540;28;20481;-66
2022/12/27 13:14:30;;;;;;;6.00;1.20;;;;;;;8.27;73.71;101740.78;5004933;28;20456;-68
2022/12/27 13:17:06;;;;;;;5.43;1.37;;;;;;;7.98;75.19;101742.97;5007652;28;20472;-67
2022/12/27 13:19:48;;;;;;;5.20;1.50;;;;;;;7.65;77.10;101736.69;5010954;28;20478;-67
2022/12/27 13:22:21;;;;;;;9.20;1.67;;;;;;;7.63;76.03;101740.72;5018099;28;20477;-67